Time;durP1;ratioP1;P1;durP2;ratioP2;P2;SDS_P1;SDS_P2;PMS_P1;PMS_P2;Temp;Humidity;BMP_temperature;BMP_pressure;BME280_temperature;BME280_humidity;BME280_pressure;Samples;Min_cycle;Max_cycle;Signal;HPM_P1;HPM_P2
2024/03/04 00:01:52;;;;;;;2.38;1.10;;;;;;;;;;5013506;28;20042;-60
2024/03/04 00:04:18;;;;;;;2.47;0.98;;;;;;;;;;5014932;28;20356;-60
2024/03/04 00:13:10;;;;;;;1.45;0.75;;;;;;;;;;5004139;28;20037;-60
2024/03/04 00:15:36;;;;;;;2.40;0.75;;;;;;;;;;5011648;28;20415;-60
2024/03/04 00:18:03;;;;;;;1.83;0.80;;;;;;;;;;5011121;28;20034;-61
2024/03/04 00:20:29;;;;;;;2.28;0.90;;;;;;;;;;5014135;28;20049;-60
2024/03/04 00:22:56;;;;;;;1.50;0.93;;;;;;;;;;5004023;28;20033;-60
2024/03/04 00:25:22;;;;;;;1.10;0.77;;;;;;;;;;5000505;28;20029;-60
2024/03/04 00:27:48;;;;;;;1.27;1.02;;;;;;;;;;5014381;28;20025;-60
2024/03/04 00:30:14;;;;;;;4.40;1.30;;;;;;;;;;5014069;28;20030;-60
2024/03/04 00:32:40;;;;;;;0.98;0.70;;;;;;;;;;5014368;28;20530;-60
2024/03/04 00:35:10;;;;;;;1.45;1.08;;;;;;;;;;5014304;28;20378;-60
2024/03/04 00:37:36;;;;;;;3.75;0.95;;;;;;;;;;5014263;28;20048;-60
2024/03/04 00:40:06;;;;;;;2.63;0.93;;;;;;;;;;5014212;28;20034;-60
2024/03/04 00:42:32;;;;;;;3.65;0.73;;;;;;;;;;5011610;28;20059;-61
2024/03/04 00:44:59;;;;;;;3.30;1.10;;;;;;;;;;5014173;28;20104;-60
2024/03/04 00:47:25;;;;;;;1.45;1.00;;;;;;;;;;5013884;28;20143;-60
2024/03/04 00:49:51;;;;;;;1.58;1.02;;;;;;;;;;5014040;28;20080;-60
2024/03/04 00:52:17;;;;;;;2.63;1.23;;;;;;;;;;5014032;28;20022;-60
2024/03/04 00:54:46;;;;;;;2.58;1.38;;;;;;;;;;5012702;28;20116;-60
2024/03/04 00:57:12;;;;;;;2.75;1.65;;;;;;;;;;5013915;28;20364;-60
2024/03/04 00:59:39;;;;;;;3.03;1.92;;;;;;;;;;5013728;28;20461;-60
2024/03/04 01:02:05;;;;;;;4.53;1.52;;;;;;;;;;5013575;28;20526;-60
2024/03/04 01:04:31;;;;;;;5.03;2.22;;;;;;;;;;5012661;28;20083;-60
2024/03/04 01:06:57;;;;;;;2.65;1.33;;;;;;;;;;5013561;28;20032;-60
2024/03/04 01:09:23;;;;;;;4.50;1.40;;;;;;;;;;5012340;28;20025;-61
2024/03/04 01:11:49;;;;;;;1.10;1.00;;;;;;;;;;5012365;28;20107;-60
2024/03/04 01:14:15;;;;;;;7.25;1.40;;;;;;;;;;5012112;28;20144;-61
2024/03/04 01:16:41;;;;;;;3.33;1.27;;;;;;;;;;5013731;28;20022;-60
2024/03/04 01:19:11;;;;;;;3.15;1.10;;;;;;;;;;5013253;28;20479;-61
2024/03/04 01:21:38;;;;;;;3.95;1.35;;;;;;;;;;5013188;28;20157;-60
2024/03/04 01:24:04;;;;;;;2.97;1.05;;;;;;;;;;5013181;28;20037;-60
2024/03/04 01:26:30;;;;;;;2.05;1.23;;;;;;;;;;5013451;28;20025;-60
2024/03/04 01:28:56;;;;;;;2.85;1.40;;;;;;;;;;5013083;28;20076;-60
2024/03/04 01:31:28;;;;;;;1.98;0.95;;;;;;;;;;5013141;28;20025;-60
2024/03/04 01:33:54;;;;;;;5.72;1.05;;;;;;;;;;5013215;28;20026;-60
2024/03/04 01:36:20;;;;;;;2.28;1.08;;;;;;;;;;5013094;28;20114;-60
2024/03/04 01:38:46;;;;;;;1.88;1.05;;;;;;;;;;5011049;28;20440;-60
2024/03/04 01:41:12;;;;;;;1.58;1.15;;;;;;;;;;5010547;28;20060;-61
2024/03/04 01:43:38;;;;;;;2.67;1.15;;;;;;;;;;5002964;28;20028;-60
2024/03/04 01:46:04;;;;;;;2.70;1.08;;;;;;;;;;5011654;28;20022;-61
2024/03/04 01:48:32;;;;;;;5.63;1.30;;;;;;;;;;5012928;28;20022;-60
2024/03/04 01:50:59;;;;;;;2.28;1.40;;;;;;;;;;5012766;28;20538;-60
2024/03/04 01:53:26;;;;;;;2.05;1.50;;;;;;;;;;4998997;28;20037;-60
2024/03/04 01:56:00;;;;;;;3.83;1.50;;;;;;;;;;5013142;28;20033;-60
2024/03/04 01:58:27;;;;;;;1.75;1.50;;;;;;;;;;5011190;28;20030;-61
2024/03/04 02:00:55;;;;;;;2.75;1.50;;;;;;;;;;5012439;28;20403;-60
2024/03/04 02:03:22;;;;;;;2.83;1.75;;;;;;;;;;5012199;28;20059;-60
2024/03/04 02:05:49;;;;;;;7.05;1.83;;;;;;;;;;5009324;28;20037;-60
2024/03/04 02:08:16;;;;;;;3.10;1.65;;;;;;;;;;5010424;28;20097;-60
2024/03/04 02:10:42;;;;;;;4.20;1.75;;;;;;;;;;5007924;28;20129;-60
2024/03/04 02:13:09;;;;;;;4.18;1.67;;;;;;;;;;5001850;28;20022;-60
2024/03/04 02:15:37;;;;;;;3.20;1.77;;;;;;;;;;5007988;28;20097;-60
2024/03/04 02:18:07;;;;;;;5.35;1.48;;;;;;;;;;5010169;28;20219;-60
2024/03/04 02:20:43;;;;;;;2.47;1.40;;;;;;;;;;5004694;28;20076;-60
2024/03/04 02:23:11;;;;;;;2.53;1.50;;;;;;;;;;5003623;28;20440;-60
2024/03/04 02:25:38;;;;;;;5.07;2.00;;;;;;;;;;5007666;28;20034;-60
2024/03/04 02:28:04;;;;;;;4.55;2.25;;;;;;;;;;5009886;28;20018;-60
2024/03/04 02:30:31;;;;;;;6.80;1.70;;;;;;;;;;5007696;28;20810;-60
2024/03/04 02:32:57;;;;;;;2.67;1.70;;;;;;;;;;5021237;28;20049;-60
2024/03/04 02:35:27;;;;;;;4.43;2.10;;;;;;;;;;5010204;28;20036;-60
2024/03/04 02:37:53;;;;;;;1.92;1.42;;;;;;;;;;5004540;28;20038;-60
2024/03/04 02:40:19;;;;;;;4.47;1.52;;;;;;;;;;5012224;28;20022;-60
2024/03/04 02:42:45;;;;;;;1.33;1.20;;;;;;;;;;5012110;28;20038;-60
2024/03/04 02:45:11;;;;;;;1.92;0.98;;;;;;;;;;5012224;28;20144;-60
2024/03/04 02:47:37;;;;;;;2.35;1.13;;;;;;;;;;5012230;28;20373;-60
2024/03/04 02:50:03;;;;;;;2.17;0.85;;;;;;;;;;5010739;28;20026;-60
2024/03/04 02:52:29;;;;;;;1.23;0.70;;;;;;;;;;5011952;28;20092;-60
2024/03/04 02:54:58;;;;;;;4.35;0.98;;;;;;;;;;5010527;28;20052;-60
2024/03/04 02:57:24;;;;;;;1.85;0.40;;;;;;;;;;5011968;28;20037;-60
2024/03/04 02:59:50;;;;;;;2.42;1.00;;;;;;;;;;5011752;28;20025;-60
2024/03/04 03:02:17;;;;;;;3.85;0.68;;;;;;;;;;5011828;28;20487;-60
2024/03/04 03:04:43;;;;;;;3.78;1.10;;;;;;;;;;5011630;28;20117;-59
2024/03/04 03:07:09;;;;;;;2.63;1.35;;;;;;;;;;5014090;28;20467;-60
2024/03/04 03:09:35;;;;;;;2.92;1.13;;;;;;;;;;5015899;28;20117;-60
2024/03/04 03:12:01;;;;;;;2.85;1.10;;;;;;;;;;5015793;28;20387;-59
2024/03/04 03:14:28;;;;;;;2.15;1.25;;;;;;;;;;5015753;28;20084;-59
2024/03/04 03:16:54;;;;;;;1.67;0.60;;;;;;;;;;5015954;28;20021;-59
2024/03/04 03:19:26;;;;;;;1.30;0.75;;;;;;;;;;5014863;28;20125;-59
2024/03/04 03:21:53;;;;;;;0.65;0.65;;;;;;;;;;5015750;28;20030;-58
2024/03/04 03:24:19;;;;;;;3.13;0.80;;;;;;;;;;5015528;28;20064;-59
2024/03/04 03:26:46;;;;;;;1.80;0.85;;;;;;;;;;5015641;28;20029;-59
2024/03/04 03:29:12;;;;;;;1.85;0.73;;;;;;;;;;5015559;28;20083;-59
2024/03/04 03:31:38;;;;;;;0.70;0.50;;;;;;;;;;5015559;28;20480;-58
2024/03/04 03:34:04;;;;;;;3.40;0.90;;;;;;;;;;5015063;28;20487;-59
2024/03/04 03:36:30;;;;;;;1.98;0.93;;;;;;;;;;5015362;28;20030;-59
2024/03/04 03:38:57;;;;;;;2.22;0.85;;;;;;;;;;5014011;28;20017;-59
2024/03/04 03:41:23;;;;;;;1.80;0.80;;;;;;;;;;5015559;28;20033;-59
2024/03/04 03:43:49;;;;;;;1.80;0.73;;;;;;;;;;5015013;28;20109;-59
2024/03/04 03:46:15;;;;;;;2.15;0.70;;;;;;;;;;5015307;28;20447;-59
2024/03/04 03:48:45;;;;;;;4.55;0.90;;;;;;;;;;5015479;28;20037;-59
2024/03/04 03:51:11;;;;;;;1.42;0.52;;;;;;;;;;5015091;28;20102;-59
2024/03/04 03:53:37;;;;;;;1.10;0.68;;;;;;;;;;5014995;28;20066;-59
2024/03/04 03:56:04;;;;;;;2.38;1.13;;;;;;;;;;5015458;28;20030;-59
2024/03/04 03:58:30;;;;;;;0.82;0.70;;;;;;;;;;5015200;28;20037;-59
2024/03/04 04:04:27;;;;;;;0.93;0.70;;;;;;;;;;5007590;28;20106;-60
2024/03/04 04:06:53;;;;;;;1.50;1.00;;;;;;;;;;5004535;28;20029;-60
2024/03/04 04:09:19;;;;;;;1.40;0.60;;;;;;;;;;5013005;28;20068;-60
2024/03/04 04:11:45;;;;;;;1.08;0.98;;;;;;;;;;5014792;28;20120;-60
2024/03/04 04:14:11;;;;;;;1.08;0.80;;;;;;;;;;5014517;28;20033;-59
2024/03/04 04:16:38;;;;;;;1.13;0.88;;;;;;;;;;5014477;28;20029;-59
2024/03/04 04:19:04;;;;;;;3.67;1.00;;;;;;;;;;5014376;28;20034;-59
2024/03/04 04:21:31;;;;;;;1.65;0.77;;;;;;;;;;5014543;28;20076;-59
2024/03/04 04:23:57;;;;;;;1.10;1.00;;;;;;;;;;5014523;28;20030;-60
2024/03/04 04:26:23;;;;;;;1.15;0.93;;;;;;;;;;5014054;28;20037;-59
2024/03/04 04:28:50;;;;;;;1.95;1.05;;;;;;;;;;5002017;28;20057;-60
2024/03/04 04:31:23;;;;;;;2.22;1.00;;;;;;;;;;5014577;28;20092;-59
2024/03/04 04:33:50;;;;;;;2.58;0.73;;;;;;;;;;5003004;28;20018;-60
2024/03/04 04:36:20;;;;;;;1.27;1.17;;;;;;;;;;5014365;28;20101;-59
2024/03/04 04:38:46;;;;;;;1.52;1.00;;;;;;;;;;5014495;28;20017;-59
2024/03/04 04:41:12;;;;;;;1.35;0.95;;;;;;;;;;5014213;28;20045;-59
2024/03/04 04:43:38;;;;;;;1.83;1.33;;;;;;;;;;5009891;28;20045;-59
2024/03/04 04:46:04;;;;;;;1.88;0.82;;;;;;;;;;5014340;28;20026;-59
2024/03/04 04:48:30;;;;;;;1.60;1.10;;;;;;;;;;5014201;28;20552;-60
2024/03/04 04:51:03;;;;;;;2.53;1.52;;;;;;;;;;5014012;28;20034;-59
2024/03/04 04:53:29;;;;;;;3.05;1.27;;;;;;;;;;5014021;28;20026;-60
2024/03/04 04:55:55;;;;;;;1.95;1.15;;;;;;;;;;5013947;28;20033;-59
2024/03/04 04:58:21;;;;;;;1.60;1.00;;;;;;;;;;5012394;28;20037;-59
2024/03/04 05:00:47;;;;;;;2.83;1.02;;;;;;;;;;5013782;28;20026;-60
2024/03/04 05:03:12;;;;;;;1.58;0.88;;;;;;;;;;5013670;28;20022;-59
2024/03/04 05:05:38;;;;;;;1.58;1.17;;;;;;;;;;5013879;28;20168;-59
2024/03/04 05:08:07;;;;;;;2.97;1.10;;;;;;;;;;5013574;28;20033;-59
2024/03/04 05:10:39;;;;;;;4.03;0.90;;;;;;;;;;5013529;28;20114;-59
2024/03/04 05:13:05;;;;;;;3.00;1.17;;;;;;;;;;5012031;28;20021;-59
2024/03/04 05:15:31;;;;;;;2.45;1.27;;;;;;;;;;5013596;28;20057;-59
2024/03/04 05:17:57;;;;;;;2.10;1.30;;;;;;;;;;5013297;28;20030;-59
2024/03/04 05:20:33;;;;;;;1.98;1.30;;;;;;;;;;5013632;28;20079;-60
2024/03/04 05:23:00;;;;;;;2.03;1.13;;;;;;;;;;5013245;28;20141;-60
2024/03/04 05:25:26;;;;;;;3.25;1.45;;;;;;;;;;5013742;28;20076;-60
2024/03/04 05:27:52;;;;;;;1.90;1.30;;;;;;;;;;5013117;28;20026;-60
2024/03/04 05:30:18;;;;;;;3.58;1.67;;;;;;;;;;5012760;28;20105;-60
2024/03/04 05:32:44;;;;;;;5.32;2.00;;;;;;;;;;5013558;28;20113;-61
2024/03/04 05:35:11;;;;;;;2.42;1.67;;;;;;;;;;5010056;28;20544;-60
2024/03/04 05:40:52;;;;;;;3.47;1.58;;;;;;;;;;5000446;28;20535;-60
2024/03/04 05:43:18;;;;;;;4.43;1.70;;;;;;;;;;5024258;28;20026;-59
2024/03/04 05:45:44;;;;;;;1.77;1.35;;;;;;;;;;5013039;28;20132;-60
2024/03/04 05:48:11;;;;;;;2.28;1.23;;;;;;;;;;5004357;28;20033;-59
2024/03/04 05:50:37;;;;;;;2.45;1.67;;;;;;;;;;5013121;28;20112;-60
2024/03/04 05:53:03;;;;;;;2.00;1.70;;;;;;;;;;5005683;28;20088;-59
2024/03/04 05:55:30;;;;;;;2.88;1.58;;;;;;;;;;5012944;28;20030;-59
2024/03/04 05:57:55;;;;;;;3.78;1.80;;;;;;;;;;5012856;28;20472;-59
2024/03/04 06:00:22;;;;;;;2.85;1.85;;;;;;;;;;5012507;28;20034;-59
2024/03/04 06:02:48;;;;;;;2.47;1.67;;;;;;;;;;5012517;28;20045;-60
2024/03/04 06:05:13;;;;;;;2.30;1.70;;;;;;;;;;5012574;28;20034;-60
2024/03/04 06:07:41;;;;;;;1.88;1.70;;;;;;;;;;5012758;28;20383;-60
2024/03/04 06:10:07;;;;;;;2.15;1.33;;;;;;;;;;5012235;28;20383;-59
2024/03/04 06:12:33;;;;;;;3.25;1.85;;;;;;;;;;5012412;28;20034;-59
2024/03/04 06:14:59;;;;;;;3.38;1.70;;;;;;;;;;5012481;28;20026;-59
2024/03/04 06:17:27;;;;;;;3.63;2.10;;;;;;;;;;5012565;28;20121;-59
2024/03/04 06:19:53;;;;;;;2.63;1.77;;;;;;;;;;5011920;28;20052;-60
2024/03/04 06:22:19;;;;;;;3.97;2.42;;;;;;;;;;5011634;28;20045;-59
2024/03/04 06:24:45;;;;;;;5.32;2.55;;;;;;;;;;5007701;28;20104;-59
2024/03/04 06:27:11;;;;;;;3.25;2.70;;;;;;;;;;5012967;28;20022;-59
2024/03/04 06:29:37;;;;;;;4.20;3.28;;;;;;;;;;5011574;28;20053;-59
2024/03/04 06:32:04;;;;;;;3.20;2.90;;;;;;;;;;5005200;28;20058;-60
2024/03/04 06:34:30;;;;;;;4.43;3.92;;;;;;;;;;5012101;28;20034;-59
2024/03/04 06:36:57;;;;;;;5.43;4.28;;;;;;;;;;5010972;28;20037;-59
2024/03/04 06:39:23;;;;;;;5.65;4.03;;;;;;;;;;5011579;28;20584;-59
2024/03/04 06:41:49;;;;;;;5.30;4.78;;;;;;;;;;5010675;28;20068;-60
2024/03/04 06:44:15;;;;;;;4.35;3.95;;;;;;;;;;5012114;28;20014;-59
2024/03/04 06:46:41;;;;;;;4.72;4.25;;;;;;;;;;5011782;28;20057;-59
2024/03/04 06:49:13;;;;;;;6.55;4.88;;;;;;;;;;5008557;28;20038;-60
2024/03/04 06:51:39;;;;;;;9.40;4.82;;;;;;;;;;5005311;28;20038;-60
2024/03/04 06:54:06;;;;;;;7.28;4.88;;;;;;;;;;5006693;28;20088;-60
2024/03/04 06:56:32;;;;;;;7.20;4.25;;;;;;;;;;5004747;28;20025;-60
2024/03/04 06:58:59;;;;;;;7.95;4.68;;;;;;;;;;5002671;28;20028;-60
2024/03/04 07:01:25;;;;;;;7.53;4.93;;;;;;;;;;5007874;28;20029;-59
2024/03/04 07:03:51;;;;;;;4.85;4.25;;;;;;;;;;5009603;28;20026;-60
2024/03/04 07:06:17;;;;;;;5.00;4.10;;;;;;;;;;5008512;28;20105;-60
2024/03/04 07:08:46;;;;;;;7.07;4.80;;;;;;;;;;5007269;28;20038;-61
2024/03/04 07:11:13;;;;;;;7.03;4.50;;;;;;;;;;5007384;28;20388;-61
2024/03/04 07:13:40;;;;;;;5.00;4.50;;;;;;;;;;5010278;28;20480;-60
2024/03/04 07:16:07;;;;;;;7.13;5.03;;;;;;;;;;5010343;28;20026;-49
2024/03/04 07:18:34;;;;;;;5.80;4.70;;;;;;;;;;5011566;28;20060;-61
2024/03/04 07:21:00;;;;;;;5.38;4.60;;;;;;;;;;5011427;28;20141;-61
2024/03/04 07:23:26;;;;;;;5.40;4.90;;;;;;;;;;5011655;28;20054;-61
2024/03/04 07:25:52;;;;;;;5.75;4.45;;;;;;;;;;5012105;28;20045;-61
2024/03/04 07:28:21;;;;;;;5.90;5.07;;;;;;;;;;5011698;28;20022;-61
2024/03/04 07:30:51;;;;;;;9.10;4.28;;;;;;;;;;5011662;28;20476;-61
2024/03/04 07:33:17;;;;;;;7.07;4.97;;;;;;;;;;5011725;28;20018;-61
2024/03/04 07:35:49;;;;;;;5.47;4.47;;;;;;;;;;5011645;28;20111;-61
2024/03/04 07:38:21;;;;;;;5.70;4.25;;;;;;;;;;5011749;28;20026;-61
2024/03/04 07:40:47;;;;;;;5.13;4.40;;;;;;;;;;5011691;28;20044;-61
2024/03/04 07:43:13;;;;;;;6.93;4.40;;;;;;;;;;5011320;28;20497;-61
2024/03/04 07:45:39;;;;;;;6.90;4.82;;;;;;;;;;5010502;28;20018;-61
2024/03/04 07:48:05;;;;;;;7.38;5.53;;;;;;;;;;5011748;28;20029;-61
2024/03/04 07:50:31;;;;;;;6.20;5.25;;;;;;;;;;5011494;28;20021;-61
2024/03/04 07:52:57;;;;;;;8.10;4.93;;;;;;;;;;5009382;28;20034;-61
2024/03/04 07:55:23;;;;;;;5.70;5.20;;;;;;;;;;5000740;28;20483;-61
2024/03/04 07:57:50;;;;;;;6.15;5.47;;;;;;;;;;5015449;28;20084;-60
2024/03/04 08:00:16;;;;;;;7.38;5.65;;;;;;;;;;5014384;28;20020;-60
2024/03/04 08:02:43;;;;;;;8.35;6.40;;;;;;;;;;5012857;28;20046;-60
2024/03/04 08:05:09;;;;;;;8.68;6.78;;;;;;;;;;5014241;28;20030;-60
2024/03/04 08:07:36;;;;;;;9.20;6.05;;;;;;;;;;5014042;28;20109;-61
2024/03/04 08:10:03;;;;;;;8.52;7.70;;;;;;;;;;5014346;28;20105;-61
2024/03/04 08:12:29;;;;;;;9.90;7.85;;;;;;;;;;5013201;28;20068;-61
2024/03/04 08:14:55;;;;;;;9.82;8.13;;;;;;;;;;5014186;28;20034;-61
2024/03/04 08:17:21;;;;;;;8.82;7.65;;;;;;;;;;5014479;28;20025;-61
2024/03/04 08:19:48;;;;;;;9.43;8.18;;;;;;;;;;5014007;28;20128;-61
2024/03/04 08:22:14;;;;;;;10.48;7.40;;;;;;;;;;5013381;28;20404;-61
2024/03/04 08:24:43;;;;;;;10.48;7.60;;;;;;;;;;5013758;28;20067;-60
2024/03/04 08:27:09;;;;;;;11.50;6.80;;;;;;;;;;5014496;28;20496;-60
2024/03/04 08:29:35;;;;;;;9.40;6.82;;;;;;;;;;5014322;28;20022;-60
2024/03/04 08:32:01;;;;;;;7.95;6.63;;;;;;;;;;5012680;28;20026;-67
2024/03/04 08:34:29;;;;;;;10.65;6.45;;;;;;;;;;5014105;28;20034;-64
2024/03/04 08:36:55;;;;;;;8.43;6.63;;;;;;;;;;5015084;28;20104;-63
2024/03/04 08:39:21;;;;;;;11.18;7.97;;;;;;;;;;5012675;28;20026;-62
2024/03/04 08:41:48;;;;;;;7.57;6.57;;;;;;;;;;5012857;28;20084;-65
2024/03/04 08:44:14;;;;;;;7.13;6.22;;;;;;;;;;5013952;28;20034;-66
2024/03/04 08:46:40;;;;;;;9.10;7.75;;;;;;;;;;5009932;28;20065;-63
2024/03/04 08:49:06;;;;;;;8.35;6.90;;;;;;;;;;5002836;28;20032;-64
2024/03/04 08:51:32;;;;;;;8.55;7.05;;;;;;;;;;5013640;28;20030;-61
2024/03/04 08:53:59;;;;;;;7.40;6.57;;;;;;;;;;5011508;28;20030;-61
2024/03/04 08:56:28;;;;;;;6.55;4.70;;;;;;;;;;5007763;28;20093;-61
2024/03/04 08:58:59;;;;;;;4.82;3.65;;;;;;;;;;5004957;28;20026;-60
2024/03/04 09:01:25;;;;;;;3.40;3.10;;;;;;;;;;5012202;28;20113;-61
2024/03/04 09:03:52;;;;;;;3.72;3.38;;;;;;;;;;5027601;28;20026;-58
2024/03/04 09:06:18;;;;;;;6.97;2.95;;;;;;;;;;5013377;28;20034;-68
2024/03/04 09:08:45;;;;;;;4.80;2.75;;;;;;;;;;5013267;28;20353;-55
2024/03/04 09:11:12;;;;;;;4.70;2.65;;;;;;;;;;5013451;28;20380;-59
2024/03/04 09:13:38;;;;;;;5.07;3.22;;;;;;;;;;5013070;28;20361;-59
2024/03/04 09:16:04;;;;;;;3.85;2.60;;;;;;;;;;5011384;28;20032;-60
2024/03/04 09:18:31;;;;;;;3.13;2.65;;;;;;;;;;5013320;28;20037;-57
2024/03/04 09:20:57;;;;;;;5.57;2.97;;;;;;;;;;5012058;28;20079;-63
2024/03/04 09:23:26;;;;;;;3.50;2.42;;;;;;;;;;5013521;28;20116;-63
2024/03/04 09:25:54;;;;;;;3.60;2.25;;;;;;;;;;5013257;28;20170;-71
2024/03/04 09:28:23;;;;;;;3.60;3.30;;;;;;;;;;5011407;28;20045;-64
2024/03/04 09:30:49;;;;;;;3.00;2.80;;;;;;;;;;5012543;28;20022;-61
2024/03/04 09:33:16;;;;;;;4.05;2.80;;;;;;;;;;5012879;28;20068;-65
2024/03/04 09:35:42;;;;;;;3.22;2.30;;;;;;;;;;5009628;28;20112;-63
2024/03/04 09:38:08;;;;;;;4.45;3.63;;;;;;;;;;5013351;28;20021;-64
2024/03/04 09:40:37;;;;;;;3.88;3.58;;;;;;;;;;5013005;28;20029;-63
2024/03/04 09:43:15;;;;;;;5.80;3.22;;;;;;;;;;5012636;28;20113;-64
2024/03/04 09:45:50;;;;;;;3.67;3.38;;;;;;;;;;5005233;28;20137;-63
2024/03/04 09:48:16;;;;;;;5.63;3.42;;;;;;;;;;5012715;28;20042;-63
2024/03/04 09:50:42;;;;;;;4.72;4.05;;;;;;;;;;5012908;28;20052;-66
2024/03/04 09:53:08;;;;;;;4.93;3.83;;;;;;;;;;5012616;28;20022;-67
2024/03/04 09:55:34;;;;;;;4.70;4.03;;;;;;;;;;5013074;28;20029;-69
2024/03/04 09:58:00;;;;;;;5.40;3.38;;;;;;;;;;5013085;28;20033;-69
2024/03/04 10:00:27;;;;;;;5.10;3.80;;;;;;;;;;5003197;28;20088;-69
2024/03/04 10:02:53;;;;;;;5.22;3.97;;;;;;;;;;5012561;28;20392;-51
2024/03/04 10:05:19;;;;;;;6.75;4.22;;;;;;;;;;5012725;28;20026;-57
2024/03/04 10:07:46;;;;;;;6.50;4.40;;;;;;;;;;5010844;28;20025;-55
2024/03/04 10:10:12;;;;;;;5.40;4.90;;;;;;;;;;5010782;28;20033;-59
2024/03/04 10:12:39;;;;;;;8.52;5.80;;;;;;;;;;5012109;28;20165;-57
2024/03/04 10:15:12;;;;;;;9.10;6.47;;;;;;;;;;5012013;28;20028;-59
2024/03/04 10:17:38;;;;;;;9.60;6.97;;;;;;;;;;5012204;28;20029;-61
2024/03/04 10:20:05;;;;;;;7.00;6.25;;;;;;;;;;5012770;28;20066;-62
2024/03/04 10:22:35;;;;;;;9.30;5.47;;;;;;;;;;5011287;28;20040;-67
2024/03/04 10:25:20;;;;;;;6.05;5.45;;;;;;;;;;5011833;28;20036;-66
2024/03/04 10:27:50;;;;;;;5.63;5.05;;;;;;;;;;5011166;28;20037;-64
2024/03/04 10:30:21;;;;;;;7.40;6.68;;;;;;;;;;5009570;28;20466;-64
2024/03/04 10:32:54;;;;;;;6.68;6.03;;;;;;;;;;5012056;28;20028;-60
2024/03/04 10:35:20;;;;;;;7.60;6.85;;;;;;;;;;5011514;28;20025;-61
2024/03/04 10:37:46;;;;;;;8.88;6.35;;;;;;;;;;5010829;28;20471;-61
2024/03/04 10:40:13;;;;;;;12.63;7.65;;;;;;;;;;5007533;28;20542;-61
2024/03/04 10:42:39;;;;;;;8.73;7.45;;;;;;;;;;5011946;28;20134;-63
2024/03/04 10:45:08;;;;;;;8.40;7.57;;;;;;;;;;5011192;28;20077;-63
2024/03/04 10:47:35;;;;;;;8.32;7.53;;;;;;;;;;5011304;28;20117;-60
2024/03/04 10:50:04;;;;;;;8.77;7.38;;;;;;;;;;5018553;28;20087;-53
2024/03/04 10:52:30;;;;;;;9.45;8.45;;;;;;;;;;5011368;28;20026;-61
2024/03/04 10:54:56;;;;;;;9.95;8.30;;;;;;;;;;5011733;28;20037;-61
2024/03/04 10:57:28;;;;;;;11.85;9.32;;;;;;;;;;5007979;28;20026;-60
2024/03/04 10:59:55;;;;;;;11.25;7.93;;;;;;;;;;5012193;28;20022;-62
2024/03/04 11:02:27;;;;;;;10.60;9.23;;;;;;;;;;5011315;28;20030;-58
2024/03/04 11:04:53;;;;;;;11.05;9.85;;;;;;;;;;5009058;28;20092;-47
2024/03/04 11:07:23;;;;;;;11.60;9.68;;;;;;;;;;5005681;28;20041;-60
2024/03/04 11:09:52;;;;;;;10.25;9.05;;;;;;;;;;4998461;28;20411;-61
2024/03/04 11:12:20;;;;;;;10.65;9.48;;;;;;;;;;5009972;28;20033;-66
2024/03/04 11:14:56;;;;;;;13.05;9.32;;;;;;;;;;5008789;28;20075;-66
2024/03/04 11:17:34;;;;;;;11.13;9.77;;;;;;;;;;4999572;28;20157;-62
2024/03/04 11:20:03;;;;;;;13.38;10.75;;;;;;;;;;4999497;28;20065;-68
2024/03/04 11:22:29;;;;;;;12.68;10.48;;;;;;;;;;5000222;28;20042;-62
2024/03/04 11:24:56;;;;;;;9.10;8.18;;;;;;;;;;5005673;28;20112;-62
2024/03/04 11:27:22;;;;;;;10.13;8.52;;;;;;;;;;5018188;28;20026;-62
2024/03/04 11:29:49;;;;;;;9.48;8.07;;;;;;;;;;5004115;28;20056;-64
2024/03/04 11:32:22;;;;;;;9.15;7.82;;;;;;;;;;5004079;28;20054;-63
2024/03/04 11:34:57;;;;;;;10.23;8.73;;;;;;;;;;5013128;28;20037;-59
2024/03/04 11:37:30;;;;;;;14.57;11.80;;;;;;;;;;4999351;28;20509;-72
2024/03/04 11:39:57;;;;;;;13.02;9.35;;;;;;;;;;5014983;28;20480;-66
2024/03/04 11:42:38;;;;;;;9.70;8.68;;;;;;;;;;5015216;28;20026;-66
2024/03/04 11:45:07;;;;;;;12.57;9.35;;;;;;;;;;5015350;28;20045;-67
2024/03/04 11:47:33;;;;;;;10.40;9.38;;;;;;;;;;5015269;28;20473;-66
2024/03/04 11:50:00;;;;;;;10.15;8.48;;;;;;;;;;5013849;28;20033;-66
2024/03/04 11:52:26;;;;;;;12.30;9.90;;;;;;;;;;5015319;28;20045;-66
2024/03/04 11:54:54;;;;;;;16.17;10.80;;;;;;;;;;5013369;28;20036;-66
2024/03/04 11:57:20;;;;;;;11.20;9.25;;;;;;;;;;5021842;28;20022;-66
2024/03/04 12:00:09;;;;;;;11.88;9.57;;;;;;;;;;5015152;28;20100;-66
2024/03/04 12:02:36;;;;;;;13.18;9.70;;;;;;;;;;5013653;28;20057;-66
2024/03/04 12:05:02;;;;;;;14.55;10.05;;;;;;;;;;5027211;28;20025;-66
2024/03/04 12:07:28;;;;;;;13.27;10.55;;;;;;;;;;5016411;28;20033;-66
2024/03/04 12:09:59;;;;;;;9.68;8.63;;;;;;;;;;5015085;28;20026;-65
2024/03/04 12:12:25;;;;;;;11.02;9.93;;;;;;;;;;5012659;28;20018;-65
2024/03/04 12:14:51;;;;;;;10.40;9.38;;;;;;;;;;5013554;28;20499;-65
2024/03/04 12:17:17;;;;;;;9.95;8.95;;;;;;;;;;5013468;28;20026;-66
2024/03/04 12:20:03;;;;;;;8.68;7.78;;;;;;;;;;5013334;28;20056;-65
2024/03/04 12:22:29;;;;;;;11.23;10.00;;;;;;;;;;5013106;28;20084;-66
2024/03/04 12:25:03;;;;;;;9.88;7.95;;;;;;;;;;5014775;28;20067;-66
2024/03/04 12:27:30;;;;;;;8.98;7.05;;;;;;;;;;5014525;28;20036;-66
2024/03/04 12:30:12;;;;;;;8.38;7.57;;;;;;;;;;5008905;28;20069;-66
2024/03/04 12:32:38;;;;;;;8.82;7.68;;;;;;;;;;5010667;28;20121;-66
2024/03/04 12:35:31;;;;;;;8.45;7.60;;;;;;;;;;5014521;28;20389;-66
2024/03/04 12:38:02;;;;;;;6.40;5.65;;;;;;;;;;5014352;28;20079;-66
2024/03/04 12:40:28;;;;;;;6.90;5.57;;;;;;;;;;5013125;28;20030;-67
2024/03/04 12:42:55;;;;;;;6.95;6.35;;;;;;;;;;5014201;28;20038;-66
2024/03/04 12:45:25;;;;;;;7.30;6.63;;;;;;;;;;5011899;28;20025;-66
2024/03/04 12:47:55;;;;;;;10.23;7.97;;;;;;;;;;5004528;28;20049;-66
2024/03/04 12:50:21;;;;;;;8.50;7.63;;;;;;;;;;5014367;28;20032;-67
2024/03/04 12:52:47;;;;;;;8.10;7.43;;;;;;;;;;5018228;28;20033;-66
2024/03/04 12:55:14;;;;;;;7.57;6.35;;;;;;;;;;5005820;28;20084;-66
2024/03/04 12:57:40;;;;;;;6.68;6.05;;;;;;;;;;5012583;28;20026;-66
2024/03/04 13:00:12;;;;;;;7.85;6.60;;;;;;;;;;5012662;28;20026;-66
2024/03/04 13:02:45;;;;;;;6.95;5.93;;;;;;;;;;5005522;28;20616;-66
2024/03/04 13:05:12;;;;;;;8.95;6.63;;;;;;;;;;5013965;28;20423;-66
2024/03/04 13:07:38;;;;;;;6.70;5.57;;;;;;;;;;5011230;28;20546;-66
2024/03/04 13:10:08;;;;;;;7.60;6.20;;;;;;;;;;5012877;28;20554;-66
2024/03/04 13:12:35;;;;;;;5.65;5.10;;;;;;;;;;5013696;28;20018;-66
2024/03/04 13:15:03;;;;;;;6.93;5.20;;;;;;;;;;5013850;28;20022;-66
2024/03/04 13:17:28;;;;;;;8.73;6.57;;;;;;;;;;5018010;28;20068;-67
2024/03/04 13:19:54;;;;;;;7.15;5.55;;;;;;;;;;5012226;28;20050;-67
2024/03/04 13:22:20;;;;;;;6.30;5.70;;;;;;;;;;5013511;28;20045;-67
2024/03/04 13:24:46;;;;;;;4.60;4.18;;;;;;;;;;5012206;28;20071;-67
2024/03/04 13:27:12;;;;;;;5.95;5.38;;;;;;;;;;5024249;28;20034;-66
2024/03/04 13:29:39;;;;;;;5.78;5.28;;;;;;;;;;5014014;28;20030;-67
2024/03/04 13:32:05;;;;;;;7.68;5.57;;;;;;;;;;5010434;28;20081;-66
2024/03/04 13:34:31;;;;;;;6.03;5.20;;;;;;;;;;5013296;28;20026;-66
2024/03/04 13:36:57;;;;;;;5.47;4.57;;;;;;;;;;5012842;28;20367;-67
2024/03/04 13:39:23;;;;;;;6.10;5.20;;;;;;;;;;4997168;28;20035;-67
2024/03/04 13:41:49;;;;;;;8.13;6.00;;;;;;;;;;5006378;28;20057;-65
2024/03/04 13:44:15;;;;;;;5.97;5.35;;;;;;;;;;5022574;28;20065;-66
2024/03/04 13:46:41;;;;;;;6.90;6.05;;;;;;;;;;5010581;28;20036;-66
2024/03/04 13:49:08;;;;;;;6.07;4.75;;;;;;;;;;5004763;28;20388;-66
2024/03/04 13:51:36;;;;;;;5.13;4.63;;;;;;;;;;4992194;28;20478;-65
2024/03/04 13:54:02;;;;;;;5.47;4.97;;;;;;;;;;5000997;28;20124;-65
2024/03/04 13:56:28;;;;;;;6.18;5.25;;;;;;;;;;5004297;28;20120;-65
2024/03/04 13:58:54;;;;;;;5.55;5.03;;;;;;;;;;5010735;28;20041;-66
2024/03/04 14:01:20;;;;;;;5.53;5.03;;;;;;;;;;5007232;28;20041;-58
2024/03/04 14:03:46;;;;;;;6.20;5.60;;;;;;;;;;5003921;28;20057;-66
2024/03/04 14:06:14;;;;;;;6.10;5.50;;;;;;;;;;4999435;28;20038;-61
2024/03/04 14:08:40;;;;;;;6.30;5.22;;;;;;;;;;4996058;28;20054;-62
2024/03/04 14:11:06;;;;;;;7.40;4.82;;;;;;;;;;5000639;28;20029;-61
2024/03/04 14:13:32;;;;;;;7.03;5.60;;;;;;;;;;5001237;28;20034;-60
2024/03/04 14:15:58;;;;;;;5.75;5.28;;;;;;;;;;5010836;28;20034;-60
2024/03/04 14:18:25;;;;;;;5.97;5.22;;;;;;;;;;5011514;28;20030;-67
2024/03/04 14:20:51;;;;;;;5.38;4.68;;;;;;;;;;5005805;28;20443;-61
2024/03/04 14:23:17;;;;;;;5.15;4.65;;;;;;;;;;5002071;28;20046;-62
2024/03/04 14:25:43;;;;;;;5.30;4.32;;;;;;;;;;5000180;28;20053;-67
2024/03/04 14:28:09;;;;;;;4.20;3.80;;;;;;;;;;5010030;28;20046;-71
2024/03/04 14:30:35;;;;;;;5.22;4.25;;;;;;;;;;5011402;28;20053;-65
2024/03/04 14:33:01;;;;;;;6.00;5.28;;;;;;;;;;5012490;28;20380;-53
2024/03/04 14:35:28;;;;;;;7.80;5.10;;;;;;;;;;5008468;28;20022;-59
2024/03/04 14:37:54;;;;;;;4.90;4.18;;;;;;;;;;5006623;28;20201;-57
2024/03/04 14:40:19;;;;;;;3.90;3.53;;;;;;;;;;5010706;28;20511;-60
2024/03/04 14:42:46;;;;;;;5.00;3.28;;;;;;;;;;5007770;28;20053;-66
2024/03/04 14:45:12;;;;;;;5.43;4.25;;;;;;;;;;5005635;28;20029;-66
2024/03/04 14:47:38;;;;;;;3.92;3.60;;;;;;;;;;5012050;28;20116;-61
2024/03/04 14:50:07;;;;;;;5.47;4.55;;;;;;;;;;5016027;28;20575;-60
2024/03/04 14:52:32;;;;;;;5.47;4.88;;;;;;;;;;5011029;28;20033;-68
2024/03/04 14:55:00;;;;;;;5.00;4.50;;;;;;;;;;5006763;28;20037;-71